createdAt,value
2023-04-09T00:01:59.762Z,7.65
2023-04-09T00:05:03.644Z,7.40
2023-04-09T00:08:07.815Z,8.40
2023-04-09T00:11:11.811Z,9.05
2023-04-09T00:14:15.500Z,8.95
2023-04-09T00:17:19.203Z,6.72
2023-04-09T00:20:23.065Z,8.30
2023-04-09T00:23:27.138Z,6.70
2023-04-09T00:26:33.103Z,6.93
2023-04-09T00:29:37.395Z,5.75
2023-04-09T00:32:42.023Z,6.30
2023-04-09T00:35:51.869Z,9.18
2023-04-09T00:38:56.144Z,12.25
2023-04-09T00:42:04.847Z,10.45
2023-04-09T00:45:10.099Z,9.40
2023-04-09T00:48:16.252Z,8.10
2023-04-09T00:51:20.569Z,7.22
2023-04-09T00:54:25.336Z,7.60
2023-04-09T00:57:30.358Z,7.45
2023-04-09T01:00:34.434Z,7.13
2023-04-09T01:03:38.288Z,6.50
2023-04-09T01:06:45.393Z,7.28
2023-04-09T01:10:02.288Z,6.90
2023-04-09T01:13:09.886Z,6.97
2023-04-09T01:16:17.346Z,6.90
2023-04-09T01:23:04.217Z,6.10
2023-04-09T01:26:32.729Z,5.75
2023-04-09T01:29:57.019Z,4.60
2023-04-09T01:33:01.982Z,4.10
2023-04-09T01:36:07.294Z,3.15
2023-04-09T01:39:11.596Z,3.25
2023-04-09T01:42:18.683Z,3.90
2023-04-09T01:45:24.224Z,3.78
2023-04-09T01:48:30.098Z,3.97
2023-04-09T01:51:34.098Z,3.80
2023-04-09T01:54:37.857Z,3.53
2023-04-09T01:57:42.115Z,3.65
2023-04-09T02:00:50.272Z,3.50
2023-04-09T02:04:05.188Z,3.25
2023-04-09T02:07:19.205Z,2.95
2023-04-09T02:10:27.710Z,2.70
2023-04-09T02:13:33.285Z,2.47
2023-04-09T02:16:37.694Z,3.17
2023-04-09T02:19:44.166Z,3.35
2023-04-09T02:22:49.767Z,3.45
2023-04-09T02:25:54.843Z,3.10
2023-04-09T02:28:58.207Z,2.83
2023-04-09T02:32:02.163Z,2.67
2023-04-09T02:35:06.292Z,3.10
2023-04-09T02:38:21.067Z,2.80
2023-04-09T02:41:25.424Z,2.83
2023-04-09T02:44:29.214Z,2.50
2023-04-09T02:47:33.187Z,2.70
2023-04-09T02:50:37.301Z,2.58
2023-04-09T02:53:41.702Z,2.88
2023-04-09T02:56:45.762Z,2.65
2023-04-09T02:59:49.513Z,2.53
2023-04-09T03:02:53.502Z,2.78
2023-04-09T03:05:57.321Z,2.15
2023-04-09T03:09:01.095Z,2.67
2023-04-09T03:12:04.183Z,2.72
2023-04-09T03:15:08.742Z,2.75
2023-04-09T03:18:11.789Z,2.53
2023-04-09T03:21:19.544Z,2.97
2023-04-09T03:24:26.171Z,3.72
2023-04-09T03:27:34.997Z,3.00
2023-04-09T03:30:39.480Z,3.28
2023-04-09T03:33:44.150Z,3.10
2023-04-09T03:36:48.658Z,3.85
2023-04-09T03:39:59.109Z,3.38
2023-04-09T03:43:06.641Z,3.50
2023-04-09T03:46:17.374Z,3.60
2023-04-09T03:49:23.424Z,3.60
2023-04-09T03:52:28.196Z,3.50
2023-04-09T03:55:38.415Z,3.53
2023-04-09T03:58:50.936Z,2.60
2023-04-09T04:01:57.900Z,2.75
2023-04-09T04:05:02.141Z,3.00
2023-04-09T04:08:10.773Z,2.63
2023-04-09T04:11:14.807Z,3.17
2023-04-09T04:14:18.664Z,3.10
2023-04-09T04:17:28.290Z,2.92
2023-04-09T04:20:34.156Z,2.72
2023-04-09T04:23:44.590Z,3.03
2023-04-09T04:26:55.680Z,3.03
2023-04-09T04:30:04.026Z,5.85
2023-04-09T04:33:26.706Z,2.50
2023-04-09T04:36:32.525Z,2.55
2023-04-09T04:39:36.728Z,2.55
2023-04-09T04:42:47.680Z,2.90
2023-04-09T04:45:53.624Z,2.22
2023-04-09T04:49:01.229Z,2.30
2023-04-09T04:52:08.203Z,2.67
2023-04-09T04:55:15.389Z,4.38
2023-04-09T04:58:19.635Z,4.50
2023-04-09T05:01:28.389Z,4.13
2023-04-09T05:04:32.286Z,4.05
2023-04-09T05:07:36.856Z,3.58
2023-04-09T05:10:43.540Z,3.40
2023-04-09T05:13:48.096Z,3.35
2023-04-09T05:16:52.783Z,3.45
2023-04-09T05:20:00.688Z,3.83
2023-04-09T05:23:15.613Z,4.05
2023-04-09T05:26:24.077Z,3.50
2023-04-09T05:29:32.339Z,3.78
2023-04-09T05:32:36.892Z,3.28
2023-04-09T05:35:41.545Z,2.92
2023-04-09T05:38:46.707Z,3.65
2023-04-09T05:41:50.771Z,3.65
2023-04-09T05:45:00.833Z,2.80
2023-04-09T05:48:04.959Z,3.85
2023-04-09T05:51:10.216Z,3.22
2023-04-09T05:54:14.753Z,3.55
2023-04-09T05:57:19.164Z,3.03
2023-04-09T06:00:31.774Z,3.20
2023-04-09T06:03:36.966Z,3.40
2023-04-09T06:06:41.213Z,3.00
2023-04-09T06:09:44.794Z,3.88
2023-04-09T06:12:48.946Z,3.70
2023-04-09T06:15:52.943Z,3.10
2023-04-09T06:18:58.421Z,2.80
2023-04-09T06:22:02.776Z,2.58
2023-04-09T06:25:07.831Z,2.90
2023-04-09T06:28:12.434Z,3.13
2023-04-09T06:31:17.460Z,2.58
2023-04-09T06:34:22.509Z,2.95
2023-04-09T06:37:28.545Z,3.70
2023-04-09T06:40:33.108Z,2.58
2023-04-09T06:43:38.629Z,2.78
2023-04-09T06:46:42.350Z,3.25
2023-04-09T06:49:47.277Z,3.90
2023-04-09T06:52:51.086Z,2.90
2023-04-09T06:55:56.707Z,2.30
2023-04-09T06:59:02.300Z,2.70
2023-04-09T07:02:06.706Z,2.65
2023-04-09T07:05:11.559Z,2.47
2023-04-09T07:08:15.631Z,2.50
2023-04-09T07:11:19.171Z,2.35
2023-04-09T07:14:23.359Z,2.33
2023-04-09T07:17:27.085Z,2.28
2023-04-09T07:20:30.765Z,2.88
2023-04-09T07:23:38.184Z,3.20
2023-04-09T07:26:42.837Z,3.20
2023-04-09T07:29:47.321Z,3.10
2023-04-09T07:32:51.956Z,4.13
2023-04-09T07:35:57.132Z,2.88
2023-04-09T07:39:00.713Z,2.28
2023-04-09T07:42:05.860Z,2.10
2023-04-09T07:45:10.696Z,2.38
2023-04-09T07:48:15.341Z,2.90
2023-04-09T07:51:19.489Z,2.60
2023-04-09T07:54:23.976Z,1.92
2023-04-09T07:57:28.588Z,1.90
2023-04-09T08:00:33.272Z,2.00
2023-04-09T08:03:37.832Z,2.13
2023-04-09T08:06:42.744Z,2.40
2023-04-09T08:09:48.044Z,1.80
2023-04-09T08:12:52.488Z,2.60
2023-04-09T08:15:57.225Z,6.53
2023-04-09T08:19:01.427Z,1.95
2023-04-09T08:22:05.590Z,33.47
2023-04-09T08:25:10.036Z,76.65
2023-04-09T08:28:14.752Z,76.07
2023-04-09T08:31:19.736Z,99.70
2023-04-09T08:34:25.035Z,112.22
2023-04-09T08:37:28.965Z,109.93
2023-04-09T08:40:37.106Z,128.30
2023-04-09T08:43:56.820Z,132.90
2023-04-09T08:47:01.633Z,136.38
2023-04-09T08:50:07.360Z,132.40
2023-04-09T08:53:12.909Z,36.75
2023-04-09T08:56:18.119Z,1.00
2023-04-09T08:59:22.051Z,1.60
2023-04-09T09:02:27.395Z,1.20
2023-04-09T09:05:39.401Z,1.25
2023-04-09T09:08:44.352Z,1.20
2023-04-09T09:11:54.810Z,1.40
2023-04-09T09:15:00.715Z,1.20
2023-04-09T09:18:05.940Z,1.08
2023-04-09T09:21:19.330Z,1.10
2023-04-09T09:24:24.611Z,1.40
2023-04-09T09:27:41.606Z,1.25
2023-04-09T09:30:49.275Z,1.48
2023-04-09T09:33:54.916Z,1.30
2023-04-09T09:37:01.006Z,1.20
2023-04-09T09:40:05.770Z,1.35
2023-04-09T09:43:11.926Z,1.40
2023-04-09T09:49:24.103Z,1.20
2023-04-09T09:52:28.665Z,1.20
2023-04-09T09:55:43.238Z,1.10
2023-04-09T09:59:05.489Z,1.40
2023-04-09T10:02:22.763Z,1.27
2023-04-09T10:05:29.177Z,1.35
2023-04-09T10:08:37.797Z,1.52
2023-04-09T10:11:49.274Z,1.45
2023-04-09T10:14:54.473Z,1.38
2023-04-09T10:18:02.489Z,1.20
2023-04-09T10:24:37.710Z,1.10
2023-04-09T10:27:43.287Z,1.60
2023-04-09T10:30:48.532Z,1.30
2023-04-09T10:33:54.052Z,1.40
2023-04-09T10:37:01.057Z,1.20
2023-04-09T10:40:05.631Z,1.25
2023-04-09T10:43:11.607Z,1.30
2023-04-09T10:46:36.082Z,1.00
2023-04-09T10:49:42.193Z,1.08
2023-04-09T10:52:46.691Z,1.20
2023-04-09T10:55:54.784Z,0.80
2023-04-09T10:59:01.300Z,1.23
2023-04-09T11:02:09.731Z,1.15
2023-04-09T11:05:21.631Z,1.40
2023-04-09T11:08:30.360Z,1.10
2023-04-09T11:11:35.409Z,1.25
2023-04-09T11:14:39.566Z,1.15
2023-04-09T11:17:45.234Z,0.88
2023-04-09T11:20:49.646Z,1.00
2023-04-09T11:23:54.909Z,1.02
2023-04-09T11:26:58.964Z,1.48
2023-04-09T11:30:03.208Z,1.10
2023-04-09T11:33:10.294Z,1.10
2023-04-09T11:36:15.169Z,12.63
2023-04-09T11:39:21.717Z,1.73
2023-04-09T11:42:27.700Z,1.00
2023-04-09T11:45:33.859Z,0.95
2023-04-09T11:48:38.028Z,1.00
2023-04-09T11:51:42.038Z,1.10
2023-04-09T11:54:50.477Z,0.98
2023-04-09T11:57:57.938Z,1.08
2023-04-09T12:01:01.766Z,1.77
2023-04-09T12:04:06.503Z,2.00
2023-04-09T12:07:10.736Z,1.30
2023-04-09T12:10:15.119Z,1.05
2023-04-09T12:13:18.436Z,3.83
2023-04-09T12:16:23.163Z,4.68
2023-04-09T12:19:27.050Z,1.40
2023-04-09T12:22:31.342Z,1.35
2023-04-09T12:25:39.054Z,1.30
2023-04-09T12:28:42.623Z,1.30
2023-04-09T12:31:46.796Z,0.98
2023-04-09T12:34:50.818Z,1.17
2023-04-09T12:37:54.773Z,0.90
2023-04-09T12:40:58.853Z,1.00
2023-04-09T12:44:02.193Z,0.90
2023-04-09T12:47:05.527Z,1.42
2023-04-09T12:50:11.210Z,1.25
2023-04-09T12:53:17.921Z,1.33
2023-04-09T12:56:21.013Z,1.20
2023-04-09T12:59:24.125Z,1.20
2023-04-09T13:02:27.481Z,1.35
2023-04-09T13:05:33.119Z,1.70
2023-04-09T13:08:36.430Z,2.20
2023-04-09T13:11:40.616Z,2.45
2023-04-09T13:14:45.796Z,6.55
2023-04-09T13:17:49.329Z,4.95
2023-04-09T13:20:53.118Z,6.25
2023-04-09T13:23:56.709Z,6.65
2023-04-09T13:26:59.780Z,5.57
2023-04-09T13:30:03.132Z,11.50
2023-04-09T13:33:06.221Z,12.23
2023-04-09T13:36:10.369Z,10.07
2023-04-09T13:39:14.245Z,9.45
2023-04-09T13:42:18.111Z,7.38
2023-04-09T13:45:24.326Z,8.65
2023-04-09T13:48:27.915Z,8.98
2023-04-09T13:51:32.129Z,11.95
2023-04-09T13:54:36.985Z,9.77
2023-04-09T13:57:40.899Z,11.00
2023-04-09T14:00:45.052Z,11.45
2023-04-09T14:03:48.731Z,9.13
2023-04-09T14:07:01.318Z,7.93
2023-04-09T14:10:04.665Z,8.35
2023-04-09T14:13:11.463Z,7.65
2023-04-09T14:16:15.367Z,7.95
2023-04-09T14:19:19.842Z,7.15
2023-04-09T14:26:07.744Z,8.43
2023-04-09T14:29:11.578Z,10.07
2023-04-09T14:32:19.324Z,12.45
2023-04-09T14:35:24.984Z,30.05
2023-04-09T14:38:30.995Z,12.98
2023-04-09T14:41:38.289Z,13.25
2023-04-09T14:44:44.690Z,9.98
2023-04-09T14:47:48.109Z,10.05
2023-04-09T14:50:54.163Z,10.10
2023-04-09T14:53:58.910Z,8.70
2023-04-09T14:57:08.776Z,7.88
2023-04-09T15:00:14.416Z,7.13
2023-04-09T15:03:18.940Z,8.05
2023-04-09T15:06:23.605Z,7.55
2023-04-09T15:09:27.002Z,6.00
2023-04-09T15:12:34.151Z,7.20
2023-04-09T15:15:41.879Z,6.75
2023-04-09T15:18:45.824Z,7.25
2023-04-09T15:21:51.965Z,7.20
2023-04-09T15:24:55.466Z,6.53
2023-04-09T15:27:58.767Z,5.88
2023-04-09T15:31:02.375Z,6.10
2023-04-09T15:34:07.295Z,6.05
2023-04-09T15:37:10.895Z,5.60
2023-04-09T15:40:14.440Z,5.95
2023-04-09T15:43:18.000Z,5.10
2023-04-09T15:46:22.449Z,5.72
2023-04-09T15:49:26.206Z,4.82
2023-04-09T15:52:30.239Z,4.45
2023-04-09T15:55:39.835Z,4.28
2023-04-09T15:58:49.745Z,4.25
2023-04-09T16:01:56.522Z,4.35
2023-04-09T16:05:03.982Z,4.70
2023-04-09T16:08:14.063Z,3.65
2023-04-09T16:11:20.935Z,4.18
2023-04-09T16:14:25.636Z,3.97
2023-04-09T16:17:31.491Z,4.47
2023-04-09T16:20:39.012Z,3.80
2023-04-09T16:23:43.542Z,3.17
2023-04-09T16:26:47.852Z,3.30
2023-04-09T16:29:53.527Z,2.80
2023-04-09T16:33:01.554Z,2.17
2023-04-09T16:36:13.866Z,2.20
2023-04-09T16:39:53.536Z,2.13
2023-04-09T16:43:13.922Z,2.30
2023-04-09T16:46:27.968Z,2.40
2023-04-09T16:50:10.114Z,2.47
2023-04-09T16:54:19.019Z,2.30
2023-04-09T17:09:57.944Z,1.60
2023-04-09T17:17:11.405Z,1.83
2023-04-09T17:20:48.193Z,1.50
2023-04-09T17:33:03.233Z,2.08
2023-04-09T17:36:26.583Z,2.45
2023-04-09T17:40:04.214Z,1.92
2023-04-09T17:43:33.040Z,2.10
2023-04-09T17:46:41.648Z,2.88
2023-04-09T17:49:52.392Z,2.53
2023-04-09T17:53:04.503Z,2.03
2023-04-09T17:56:21.120Z,2.03
2023-04-09T17:59:33.384Z,1.98
2023-04-09T18:02:51.292Z,1.88
2023-04-09T18:06:05.177Z,1.80
2023-04-09T18:09:14.783Z,2.17
2023-04-09T18:12:19.621Z,1.70
2023-04-09T18:15:33.856Z,1.53
2023-04-09T18:19:22.581Z,1.80
2023-04-09T18:22:40.631Z,1.63
2023-04-09T18:29:28.398Z,2.58
2023-04-09T18:32:42.424Z,1.63
2023-04-09T18:37:25.188Z,1.83
2023-04-09T18:40:17.395Z,1.73
2023-04-09T18:43:52.253Z,1.90
2023-04-09T18:47:42.764Z,10.73
2023-04-09T18:51:20.920Z,1.52
2023-04-09T18:54:47.547Z,1.52
2023-04-09T18:58:16.166Z,1.70
2023-04-09T19:02:05.880Z,1.98
2023-04-09T19:05:15.842Z,1.85
2023-04-09T19:08:40.982Z,1.67
2023-04-09T19:12:07.028Z,1.67
2023-04-09T19:15:56.332Z,2.08
2023-04-09T19:23:33.887Z,1.58
2023-04-09T19:35:53.002Z,1.90
2023-04-09T19:40:05.292Z,2.97
2023-04-09T19:52:53.047Z,3.00
2023-04-09T19:59:12.005Z,4.43
2023-04-09T20:03:11.115Z,3.50
2023-04-09T20:11:11.380Z,3.70
2023-04-09T20:15:10.285Z,4.10
2023-04-09T20:30:44.857Z,2.85
2023-04-09T20:34:24.138Z,6.75
2023-04-09T20:38:14.501Z,6.88
2023-04-09T20:41:33.507Z,5.43
2023-04-09T20:45:10.584Z,5.30
2023-04-09T20:48:32.100Z,2.20
2023-04-09T20:59:49.543Z,2.65
2023-04-09T21:03:05.226Z,2.63
2023-04-09T21:06:18.800Z,2.25
2023-04-09T21:09:36.750Z,2.03
2023-04-09T21:20:17.533Z,2.15
2023-04-09T21:24:29.761Z,2.85
2023-04-09T21:28:03.754Z,2.22
2023-04-09T21:31:25.498Z,2.60
2023-04-09T21:34:53.980Z,2.13
2023-04-09T21:38:01.764Z,2.55
2023-04-09T21:41:05.923Z,2.65
2023-04-09T21:44:11.613Z,3.67
2023-04-09T21:47:16.959Z,3.58
2023-04-09T21:50:21.920Z,4.13
2023-04-09T21:53:28.399Z,3.78
2023-04-09T21:56:34.388Z,43.78
2023-04-09T21:59:41.743Z,5.03
2023-04-09T22:02:46.547Z,3.08
2023-04-09T22:05:51.330Z,2.38
2023-04-09T22:08:58.422Z,2.67
2023-04-09T22:12:04.662Z,1.83
2023-04-09T22:15:10.772Z,2.95
2023-04-09T22:18:15.688Z,2.03
2023-04-09T22:21:21.501Z,2.20
2023-04-09T22:24:30.947Z,2.75
2023-04-09T22:27:36.228Z,3.00
2023-04-09T22:30:40.120Z,3.25
2023-04-09T22:33:43.394Z,3.35
2023-04-09T22:36:46.690Z,3.30
2023-04-09T22:39:51.196Z,4.40
2023-04-09T22:42:54.272Z,2.72
2023-04-09T22:45:57.888Z,3.40
2023-04-09T22:49:05.635Z,7.30
2023-04-09T22:52:10.508Z,3.85
2023-04-09T22:55:14.277Z,3.83
2023-04-09T22:58:24.433Z,3.92
2023-04-09T23:01:32.372Z,4.38
2023-04-09T23:04:40.160Z,4.38
2023-04-09T23:07:50.188Z,4.70
2023-04-09T23:10:55.941Z,6.40
2023-04-09T23:14:01.708Z,4.43
2023-04-09T23:17:09.710Z,4.03
2023-04-09T23:20:17.380Z,5.40
2023-04-09T23:23:25.012Z,5.80
2023-04-09T23:26:32.177Z,5.65
2023-04-09T23:29:40.666Z,8.00
2023-04-09T23:35:53.876Z,6.43
2023-04-09T23:39:04.742Z,4.40
2023-04-09T23:42:11.012Z,5.65
2023-04-09T23:45:16.956Z,4.65
2023-04-09T23:48:22.201Z,3.67
2023-04-09T23:51:28.167Z,4.13
2023-04-09T23:54:33.626Z,4.45
2023-04-09T23:57:42.404Z,5.30
